Time;durP1;ratioP1;P1;durP2;ratioP2;P2;SDS_P1;SDS_P2;PMS_P1;PMS_P2;Temp;Humidity;BMP_temperature;BMP_pressure;BME280_temperature;BME280_humidity;BME280_pressure;Samples;Min_cycle;Max_cycle;Signal;HPM_P1;HPM_P2
2022/02/07 00:00:35;;;;;;;12.60;2.35;;;12.10;76.00;;;;;;5159333;27;20029;-77
2022/02/07 00:03:33;;;;;;;8.55;1.30;;;12.00;75.40;;;;;;5157197;27;20057;-77
2022/02/07 00:05:47;;;;;;;11.07;1.90;;;12.00;74.40;;;;;;5158564;27;20067;-76
2022/02/07 00:08:13;;;;;;;10.60;1.73;;;12.00;74.10;;;;;;5140441;27;20022;-76
2022/02/07 00:10:40;;;;;;;8.10;1.30;;;12.00;73.60;;;;;;5158185;27;20050;-77
2022/02/07 00:13:07;;;;;;;5.93;1.38;;;12.00;73.80;;;;;;5120093;27;20027;-77
2022/02/07 00:15:37;;;;;;;10.98;1.83;;;12.00;73.60;;;;;;5138548;27;20023;-77
2022/02/07 00:18:04;;;;;;;7.88;1.90;;;11.90;73.90;;;;;;5138264;27;20027;-77
2022/02/07 00:20:30;;;;;;;7.80;2.08;;;11.80;74.10;;;;;;5153236;27;20030;-77
2022/02/07 00:22:56;;;;;;;10.20;2.15;;;11.90;74.40;;;;;;5140023;27;20498;-77
2022/02/07 00:25:22;;;;;;;13.57;3.15;;;11.90;74.70;;;;;;5158902;27;20072;-77
2022/02/07 00:27:48;;;;;;;17.98;2.38;;;11.90;74.90;;;;;;5158928;27;20046;-77
2022/02/07 00:30:17;;;;;;;8.43;2.47;;;11.90;74.80;;;;;;5159124;27;20019;-76
2022/02/07 00:32:43;;;;;;;10.73;1.90;;;12.00;74.60;;;;;;5139655;27;20023;-76
2022/02/07 00:35:14;;;;;;;13.68;2.00;;;12.00;74.80;;;;;;5159008;27;20418;-76
2022/02/07 00:37:42;;;;;;;11.40;1.98;;;12.10;74.70;;;;;;5157472;27;20023;-77
2022/02/07 00:42:53;;;;;;;15.13;2.33;;;12.00;74.80;;;;;;5158544;27;20047;-77
2022/02/07 00:45:38;;;;;;;10.82;2.05;;;11.80;74.70;;;;;;5158961;27;20029;-77
2022/02/07 00:48:05;;;;;;;8.73;1.80;;;11.90;75.10;;;;;;5158562;27;20098;-77
2022/02/07 00:50:33;;;;;;;14.43;2.40;;;11.80;75.00;;;;;;5158848;27;20026;-77
2022/02/07 00:52:59;;;;;;;10.60;1.60;;;11.70;75.20;;;;;;5157020;27;20019;-77
2022/02/07 00:55:26;;;;;;;15.52;3.15;;;11.70;75.70;;;;;;5158875;27;20022;-77
2022/02/07 00:57:52;;;;;;;6.05;1.50;;;11.80;75.70;;;;;;5158741;27;20423;-76
2022/02/07 01:00:18;;;;;;;13.45;1.83;;;11.80;75.40;;;;;;5158970;27;20037;-76
2022/02/07 01:02:44;;;;;;;7.60;1.67;;;11.80;75.40;;;;;;5138494;27;20065;-76
2022/02/07 01:05:10;;;;;;;8.55;2.08;;;11.70;75.70;;;;;;5137657;28;20469;-77
2022/02/07 01:07:36;;;;;;;12.10;2.22;;;11.70;75.50;;;;;;5137784;28;20509;-77
2022/02/07 01:10:04;;;;;;;9.80;2.17;;;11.70;75.40;;;;;;5138040;28;20019;-77
2022/02/07 01:54:42;;;;;;;11.32;1.90;;;11.40;75.40;;;;;;5162078;27;20083;-77
2022/02/07 01:57:10;;;;;;;15.23;2.10;;;11.50;75.30;;;;;;5143073;27;20026;-76
2022/02/07 01:59:37;;;;;;;9.70;1.98;;;11.40;75.40;;;;;;5161827;27;20054;-76
2022/02/07 02:02:03;;;;;;;10.93;1.70;;;11.30;75.90;;;;;;5142990;27;20391;-77
2022/02/07 02:04:29;;;;;;;7.60;1.95;;;11.30;76.10;;;;;;5161199;27;20065;-76
2022/02/07 02:06:55;;;;;;;13.95;2.17;;;11.30;75.70;;;;;;5142756;27;20030;-77
2022/02/07 02:09:22;;;;;;;10.20;2.03;;;11.30;75.40;;;;;;5161564;27;20015;-77
2022/02/07 02:11:47;;;;;;;9.48;1.77;;;11.40;75.40;;;;;;5161625;27;20475;-76
2022/02/07 02:20:33;;;;;;;6.30;1.80;;;11.40;74.80;;;;;;5161579;27;20075;-76
2022/02/07 02:32:49;;;;;;;10.10;2.05;;;11.50;74.80;;;;;;5161351;27;20037;-76
2022/02/07 02:37:06;;;;;;;16.33;3.00;;;11.30;74.80;;;;;;5136601;27;20043;-77
2022/02/07 02:47:43;;;;;;;11.52;2.17;;;11.40;73.80;;;;;;5160972;27;20038;-76
2022/02/07 02:50:27;;;;;;;11.20;2.17;;;11.40;73.70;;;;;;5160963;27;20023;-77
2022/02/07 02:52:53;;;;;;;9.27;2.10;;;11.30;73.30;;;;;;5141934;27;20609;-77
2022/02/07 02:55:18;;;;;;;7.25;1.67;;;11.30;73.30;;;;;;5142250;27;20036;-77
2022/02/07 02:57:44;;;;;;;7.95;2.38;;;11.40;73.50;;;;;;5160651;27;20094;-76
2022/02/07 03:00:10;;;;;;;9.23;1.67;;;11.50;73.30;;;;;;5160722;27;20110;-76
2022/02/07 03:02:36;;;;;;;6.28;1.85;;;11.30;73.00;;;;;;5160500;27;20105;-76
2022/02/07 03:05:02;;;;;;;6.85;1.75;;;11.30;72.00;;;;;;5160681;27;20064;-76
2022/02/07 03:07:27;;;;;;;9.77;1.52;;;11.30;72.60;;;;;;5160717;27;20025;-77
2022/02/07 03:09:55;;;;;;;9.27;2.22;;;11.30;72.00;;;;;;5141760;27;20067;-76
2022/02/07 03:12:21;;;;;;;6.75;1.77;;;11.40;71.60;;;;;;5160206;27;20023;-77
2022/02/07 03:14:48;;;;;;;8.98;1.88;;;11.40;71.60;;;;;;5160190;27;20102;-76
2022/02/07 03:17:14;;;;;;;8.82;1.73;;;11.30;70.20;;;;;;5160298;27;20027;-77
2022/02/07 03:19:40;;;;;;;12.77;2.40;;;11.30;70.20;;;;;;5160377;27;20025;-77
2022/02/07 03:22:07;;;;;;;6.72;1.67;;;11.30;70.60;;;;;;5160097;27;20484;-76
2022/02/07 03:24:32;;;;;;;12.70;1.77;;;11.30;70.00;;;;;;5159966;27;20505;-77
2022/02/07 03:26:58;;;;;;;4.25;1.42;;;11.20;69.90;;;;;;5160116;27;20106;-76
2022/02/07 03:29:24;;;;;;;6.38;1.50;;;11.20;69.50;;;;;;5141209;27;20029;-76
2022/02/07 03:31:50;;;;;;;4.80;1.40;;;11.20;70.50;;;;;;5141434;27;20023;-77
2022/02/07 03:34:16;;;;;;;9.13;1.65;;;11.30;70.40;;;;;;5160013;27;20029;-76
2022/02/07 03:36:42;;;;;;;11.88;1.92;;;11.30;69.60;;;;;;5159948;27;20018;-76
2022/02/07 03:39:09;;;;;;;6.30;1.83;;;11.20;69.70;;;;;;5159720;27;20421;-76
2022/02/07 03:41:38;;;;;;;9.18;1.52;;;11.30;69.90;;;;;;5159786;27;20106;-76
2022/02/07 03:44:04;;;;;;;5.13;1.48;;;11.20;69.40;;;;;;5159776;27;20022;-76
2022/02/07 03:46:30;;;;;;;8.77;1.88;;;11.30;69.50;;;;;;5141233;27;20022;-77
2022/02/07 03:48:55;;;;;;;13.50;1.90;;;11.10;68.60;;;;;;5159675;27;20030;-76
2022/02/07 03:51:21;;;;;;;11.40;2.17;;;11.00;69.30;;;;;;5159762;27;20019;-76
2022/02/07 03:53:47;;;;;;;9.23;1.65;;;11.00;69.70;;;;;;5159252;27;20022;-77
2022/02/07 03:56:13;;;;;;;12.20;1.90;;;11.00;69.90;;;;;;5159656;27;20621;-76
2022/02/07 03:58:39;;;;;;;5.38;1.45;;;11.10;70.10;;;;;;5159392;27;20022;-76
2022/02/07 04:01:05;;;;;;;16.23;2.28;;;11.10;70.00;;;;;;5159532;27;20086;-76
2022/02/07 04:03:33;;;;;;;10.10;2.03;;;11.10;70.20;;;;;;5159691;27;20050;-76
2022/02/07 04:08:30;;;;;;;12.27;1.85;;;11.20;70.60;;;;;;5158683;27;20022;-77
2022/02/07 04:13:33;;;;;;;8.07;1.55;;;11.10;70.30;;;;;;5159470;27;20026;-76
2022/02/07 04:16:02;;;;;;;8.38;2.38;;;11.00;70.00;;;;;;5159362;27;20472;-76
2022/02/07 04:18:33;;;;;;;8.13;2.28;;;11.10;70.70;;;;;;5159275;27;20011;-76
2022/02/07 04:21:00;;;;;;;5.80;1.98;;;11.00;70.00;;;;;;5140330;27;20061;-76
2022/02/07 04:23:26;;;;;;;4.85;1.45;;;11.00;70.50;;;;;;5140281;27;20022;-76
2022/02/07 04:25:52;;;;;;;7.10;1.50;;;11.00;70.70;;;;;;5140061;27;20058;-76
2022/02/07 04:28:19;;;;;;;14.48;2.10;;;11.00;70.40;;;;;;5140485;27;20054;-76
2022/02/07 04:30:44;;;;;;;4.80;1.63;;;11.10;70.50;;;;;;5158834;27;20015;-76
2022/02/07 04:33:10;;;;;;;5.00;1.42;;;11.00;70.70;;;;;;5140363;27;20019;-77
2022/02/07 04:35:36;;;;;;;7.80;2.05;;;11.00;70.80;;;;;;5158646;27;20031;-76
2022/02/07 04:38:01;;;;;;;12.20;1.67;;;11.00;71.10;;;;;;5159237;27;20464;-76
2022/02/07 04:40:27;;;;;;;7.13;1.50;;;11.00;71.30;;;;;;5158958;27;20022;-76
2022/02/07 04:42:54;;;;;;;8.35;1.50;;;11.00;71.50;;;;;;5159204;27;20031;-76
2022/02/07 04:50:43;;;;;;;6.93;1.50;;;10.90;72.10;;;;;;5158796;27;20067;-76
2022/02/07 04:53:18;;;;;;;8.55;1.90;;;10.90;72.20;;;;;;5158707;27;20115;-76
2022/02/07 05:00:49;;;;;;;13.95;1.98;;;11.00;72.10;;;;;;5158455;27;20019;-76
2022/02/07 05:03:18;;;;;;;7.90;1.75;;;11.00;72.10;;;;;;5158816;27;20111;-76
2022/02/07 05:16:07;;;;;;;7.55;1.88;;;10.90;72.90;;;;;;5158728;27;20018;-77
2022/02/07 05:18:32;;;;;;;4.40;1.58;;;10.80;73.20;;;;;;5158729;27;20019;-76
2022/02/07 05:20:58;;;;;;;12.93;1.83;;;10.80;73.50;;;;;;5162360;27;20076;-77
2022/02/07 05:23:24;;;;;;;11.38;2.70;;;10.80;73.60;;;;;;5143719;27;20022;-77
2022/02/07 05:25:49;;;;;;;8.18;1.83;;;10.80;73.50;;;;;;5162368;27;20054;-77
2022/02/07 05:28:15;;;;;;;10.50;2.75;;;10.70;73.70;;;;;;5143931;27;20023;-77
2022/02/07 05:30:41;;;;;;;6.22;1.98;;;10.60;74.10;;;;;;5143616;27;20030;-76
2022/02/07 05:33:07;;;;;;;9.20;2.05;;;10.50;74.00;;;;;;5162677;27;20491;-76
2022/02/07 05:35:32;;;;;;;4.85;1.60;;;10.40;73.90;;;;;;5162467;27;20071;-76
2022/02/07 05:37:58;;;;;;;8.43;1.98;;;10.30;74.60;;;;;;5162232;27;20031;-76
2022/02/07 05:40:39;;;;;;;12.25;2.05;;;10.30;74.60;;;;;;5162233;27;20022;-76
2022/02/07 05:43:05;;;;;;;4.72;1.42;;;10.30;74.60;;;;;;5162064;27;20033;-76
2022/02/07 05:45:31;;;;;;;12.90;2.33;;;10.20;74.70;;;;;;5162127;27;20018;-76
2022/02/07 05:47:57;;;;;;;8.20;2.50;;;10.10;74.90;;;;;;5162131;27;20432;-76
2022/02/07 05:50:22;;;;;;;7.70;2.00;;;10.10;74.90;;;;;;5162002;27;20018;-76
2022/02/07 05:52:48;;;;;;;8.35;1.88;;;10.10;75.00;;;;;;5143302;27;20091;-76
2022/02/07 05:55:15;;;;;;;7.22;1.85;;;10.10;74.90;;;;;;5161939;27;20022;-76
2022/02/07 05:57:41;;;;;;;5.93;1.50;;;10.10;75.30;;;;;;5162085;27;20038;-76
2022/02/07 06:00:08;;;;;;;9.88;1.85;;;10.10;75.30;;;;;;5161752;27;20040;-76
2022/02/07 06:02:34;;;;;;;10.30;1.75;;;10.00;75.60;;;;;;5161882;27;20030;-76
2022/02/07 06:05:00;;;;;;;10.07;2.03;;;10.10;75.50;;;;;;5161809;27;20011;-76
2022/02/07 06:07:25;;;;;;;8.90;2.50;;;10.00;75.50;;;;;;5161569;27;20106;-76
2022/02/07 06:09:51;;;;;;;25.25;9.30;;;10.00;75.70;;;;;;5142996;27;20492;-76
2022/02/07 06:12:17;;;;;;;20.38;8.60;;;9.90;76.00;;;;;;5161782;27;20528;-76
2022/02/07 06:14:43;;;;;;;16.83;5.50;;;9.90;76.10;;;;;;5143018;27;20030;-76
2022/02/07 06:17:10;;;;;;;10.77;4.47;;;9.80;76.40;;;;;;5161593;27;20030;-76
2022/02/07 06:19:37;;;;;;;9.48;3.35;;;9.80;76.60;;;;;;5161420;27;20425;-76
2022/02/07 06:22:03;;;;;;;13.13;2.53;;;9.70;76.90;;;;;;5161156;27;20083;-77
2022/02/07 06:24:29;;;;;;;13.18;2.35;;;9.70;77.20;;;;;;5142572;27;20050;-77
2022/02/07 06:26:54;;;;;;;7.65;2.47;;;9.70;77.20;;;;;;5161072;27;20022;-76
2022/02/07 06:29:20;;;;;;;8.73;2.45;;;9.70;77.30;;;;;;5161561;27;20497;-76
2022/02/07 06:31:46;;;;;;;14.77;2.38;;;9.60;77.30;;;;;;5141737;27;20051;-77
2022/02/07 06:34:12;;;;;;;11.57;2.72;;;9.50;77.10;;;;;;5161405;27;20018;-76
2022/02/07 06:36:38;;;;;;;10.32;2.58;;;9.50;77.00;;;;;;5160904;27;20086;-76
2022/02/07 06:39:04;;;;;;;8.88;2.20;;;9.50;77.00;;;;;;5161100;27;20022;-76
2022/02/07 06:41:29;;;;;;;9.95;2.38;;;9.50;77.20;;;;;;5160836;27;20099;-76
2022/02/07 06:43:55;;;;;;;11.23;2.70;;;9.40;77.30;;;;;;5142509;27;20078;-76
2022/02/07 06:46:21;;;;;;;11.80;3.10;;;9.30;77.50;;;;;;5160771;27;20055;-76
2022/02/07 06:48:46;;;;;;;9.88;2.47;;;9.30;77.70;;;;;;5160931;27;20026;-76
2022/02/07 06:51:12;;;;;;;11.30;2.72;;;9.30;77.60;;;;;;5160648;27;20374;-76
2022/02/07 06:53:38;;;;;;;14.05;3.30;;;9.20;77.60;;;;;;5142219;27;20011;-76
2022/02/07 06:56:05;;;;;;;14.98;4.32;;;9.10;77.80;;;;;;5142086;27;20522;-76
2022/02/07 06:58:31;;;;;;;15.73;3.95;;;9.10;77.80;;;;;;5142205;27;20110;-76
2022/02/07 07:00:59;;;;;;;8.45;2.92;;;9.10;77.90;;;;;;5142141;27;20573;-76
2022/02/07 07:03:25;;;;;;;12.65;4.65;;;9.00;77.70;;;;;;5160695;27;20023;-76
2022/02/07 07:05:52;;;;;;;11.98;3.53;;;9.00;77.60;;;;;;5141775;27;20552;-76
2022/02/07 07:08:18;;;;;;;12.10;4.35;;;8.90;77.50;;;;;;5160476;27;20046;-76
2022/02/07 07:10:46;;;;;;;10.88;4.18;;;8.90;77.60;;;;;;5160626;27;20019;-76
2022/02/07 07:13:15;;;;;;;11.88;4.28;;;8.80;77.70;;;;;;5160563;27;20097;-76
2022/02/07 07:15:58;;;;;;;5.43;3.60;;;8.80;78.20;;;;;;5141815;27;20041;-76
2022/02/07 07:18:23;;;;;;;15.73;3.70;;;8.80;78.30;;;;;;5160574;27;20092;-76
2022/02/07 07:20:49;;;;;;;9.05;3.75;;;8.70;78.30;;;;;;5160022;27;20492;-76
2022/02/07 07:23:15;;;;;;;10.02;3.75;;;8.80;78.30;;;;;;5160235;27;20030;-76
2022/02/07 07:25:44;;;;;;;12.85;3.78;;;8.70;78.30;;;;;;5137833;27;20385;-76
2022/02/07 07:28:12;;;;;;;8.55;3.92;;;8.70;78.50;;;;;;5138190;27;20080;-76
2022/02/07 07:30:42;;;;;;;16.15;3.70;;;8.70;78.50;;;;;;5137818;27;20505;-76
2022/02/07 07:33:13;;;;;;;12.48;4.00;;;8.70;78.30;;;;;;5139613;27;20030;-76
2022/02/07 07:35:39;;;;;;;11.35;4.45;;;8.70;78.10;;;;;;5139235;27;20023;-76
2022/02/07 07:38:05;;;;;;;9.65;3.80;;;8.70;78.40;;;;;;5139100;27;20031;-75
2022/02/07 07:40:30;;;;;;;10.93;4.22;;;8.70;78.10;;;;;;5139232;27;20049;-76
2022/02/07 07:42:56;;;;;;;13.15;4.30;;;8.60;78.30;;;;;;5136620;27;20031;-76
2022/02/07 07:45:27;;;;;;;15.30;3.88;;;8.60;78.50;;;;;;5139354;27;20031;-76
2022/02/07 07:48:00;;;;;;;12.70;5.03;;;8.60;78.60;;;;;;5139251;27;20016;-76
2022/02/07 07:50:42;;;;;;;20.90;6.25;;;8.60;78.30;;;;;;5136758;27;20030;-76
2022/02/07 08:03:42;;;;;;;19.20;7.35;;;8.80;78.60;;;;;;5138777;27;20049;-76
2022/02/07 08:06:21;;;;;;;22.70;7.45;;;8.90;78.20;;;;;;5138564;27;20106;-76
2022/02/07 08:11:31;;;;;;;15.25;7.55;;;9.00;78.50;;;;;;5138648;27;20074;-76
2022/02/07 08:13:58;;;;;;;20.75;7.78;;;9.10;78.30;;;;;;5138723;27;20037;-76
2022/02/07 08:16:24;;;;;;;17.55;7.70;;;9.20;78.30;;;;;;5138723;27;20023;-76
2022/02/07 08:18:51;;;;;;;17.90;6.50;;;9.20;78.40;;;;;;5138488;27;20085;-76
2022/02/07 08:21:16;;;;;;;10.55;5.53;;;9.40;78.20;;;;;;5138417;27;20026;-76
2022/02/07 08:23:43;;;;;;;16.08;6.35;;;9.40;78.40;;;;;;5138333;27;20027;-77
2022/02/07 08:26:10;;;;;;;13.98;5.88;;;9.60;78.30;;;;;;5140454;27;20554;-76
2022/02/07 08:28:36;;;;;;;15.80;6.03;;;9.70;78.10;;;;;;5159180;27;20014;-77
2022/02/07 08:31:02;;;;;;;12.15;6.07;;;9.80;78.10;;;;;;5159048;27;20048;-76
2022/02/07 08:33:28;;;;;;;16.80;5.82;;;9.90;78.40;;;;;;5158895;27;20029;-76
2022/02/07 08:35:53;;;;;;;12.82;5.15;;;10.00;78.70;;;;;;5140292;27;20544;-76
2022/02/07 08:38:19;;;;;;;12.88;4.60;;;10.20;78.10;;;;;;5158718;27;20022;-77
2022/02/07 08:40:48;;;;;;;13.40;4.35;;;10.20;78.40;;;;;;5159266;27;20023;-77
2022/02/07 08:43:14;;;;;;;13.00;4.03;;;10.20;79.10;;;;;;5158826;27;20082;-76
2022/02/07 08:45:40;;;;;;;18.50;3.50;;;10.20;79.30;;;;;;5140536;27;21204;-77
2022/02/07 08:48:07;;;;;;;8.75;3.22;;;10.30;79.10;;;;;;5140037;27;20015;-76
2022/02/07 08:50:34;;;;;;;12.20;2.78;;;10.40;78.90;;;;;;5159135;27;20034;-76
2022/02/07 08:53:01;;;;;;;16.33;3.25;;;10.60;78.80;;;;;;5158577;27;20105;-77
2022/02/07 08:55:34;;;;;;;12.02;2.72;;;10.60;79.10;;;;;;5162639;27;20109;-76
2022/02/07 08:58:08;;;;;;;11.85;3.15;;;10.70;79.00;;;;;;5144290;27;20089;-77
2022/02/07 09:00:40;;;;;;;9.20;3.20;;;10.70;79.30;;;;;;5163090;27;20019;-77
2022/02/07 09:06:06;;;;;;;13.93;2.90;;;10.80;79.10;;;;;;5162938;27;20053;-76
2022/02/07 09:11:09;;;;;;;12.20;2.60;;;10.80;79.50;;;;;;5162954;27;20372;-76
2022/02/07 09:13:37;;;;;;;16.48;3.30;;;10.90;79.30;;;;;;5144119;27;20034;-77
2022/02/07 09:16:16;;;;;;;7.68;2.35;;;11.00;78.60;;;;;;5163169;27;20087;-77
2022/02/07 09:18:44;;;;;;;9.13;2.20;;;11.00;78.50;;;;;;5162518;27;20023;-76
2022/02/07 09:21:11;;;;;;;5.03;2.58;;;11.10;78.30;;;;;;5162606;27;20453;-77
2022/02/07 09:23:39;;;;;;;13.63;2.88;;;11.10;78.50;;;;;;5162659;27;20031;-77
2022/02/07 09:26:05;;;;;;;11.68;3.08;;;11.20;78.10;;;;;;5143863;27;20381;-77
2022/02/07 09:28:31;;;;;;;8.35;2.92;;;11.10;78.30;;;;;;5143663;27;20023;-77
2022/02/07 09:30:57;;;;;;;11.50;3.00;;;11.20;78.20;;;;;;5143728;27;20138;-77
2022/02/07 09:33:23;;;;;;;18.20;3.67;;;11.30;77.70;;;;;;5162382;27;20042;-77
2022/02/07 09:35:51;;;;;;;15.18;2.75;;;11.60;77.00;;;;;;5162449;27;20030;-77
2022/02/07 09:38:17;;;;;;;16.52;2.85;;;11.80;75.60;;;;;;5162177;27;20031;-77
2022/02/07 09:40:49;;;;;;;11.27;2.45;;;11.90;75.20;;;;;;5162506;27;20058;-77
2022/02/07 09:43:16;;;;;;;10.80;2.90;;;11.90;74.80;;;;;;5162153;27;20024;-77
2022/02/07 09:45:44;;;;;;;13.50;2.88;;;12.00;74.70;;;;;;5143432;27;20038;-77
2022/02/07 09:48:09;;;;;;;14.18;3.10;;;12.50;74.10;;;;;;5162232;27;20075;-77
2022/02/07 09:50:36;;;;;;;9.15;4.13;;;12.70;72.90;;;;;;5162149;27;20023;-77
2022/02/07 09:53:03;;;;;;;9.13;2.65;;;14.10;69.90;;;;;;5161818;27;20022;-77
2022/02/07 09:55:29;;;;;;;13.63;3.33;;;14.90;66.40;;;;;;5162004;27;20426;-77
2022/02/07 09:57:55;;;;;;;13.35;2.72;;;14.60;65.50;;;;;;5161933;27;20022;-76
2022/02/07 10:00:28;;;;;;;14.30;3.00;;;14.50;66.20;;;;;;5143120;27;20027;-77
2022/02/07 10:03:30;;;;;;;14.27;3.72;;;14.30;66.30;;;;;;5161838;27;20021;-77
2022/02/07 10:06:02;;;;;;;13.93;4.13;;;14.40;66.00;;;;;;5142036;27;20079;-77
2022/02/07 10:11:21;;;;;;;10.48;3.60;;;15.00;65.00;;;;;;5161940;27;20090;-75
2022/02/07 10:22:28;;;;;;;12.60;2.40;;;14.80;61.60;;;;;;5161348;27;20030;-77
2022/02/07 10:44:32;;;;;;;15.13;2.25;;;13.40;63.50;;;;;;5161138;27;20041;-77
2022/02/07 10:47:05;;;;;;;11.07;1.98;;;13.50;64.30;;;;;;5161032;27;20025;-77
2022/02/07 10:49:31;;;;;;;12.70;2.20;;;13.50;63.10;;;;;;5142052;27;20030;-77
2022/02/07 10:52:00;;;;;;;12.10;2.42;;;13.40;63.70;;;;;;5160784;27;20018;-77
2022/02/07 10:54:27;;;;;;;12.73;1.90;;;13.50;65.30;;;;;;5160665;27;20027;-77
2022/02/07 10:56:54;;;;;;;16.58;2.25;;;13.60;63.10;;;;;;5160698;27;20054;-77
2022/02/07 10:59:22;;;;;;;10.88;2.10;;;13.60;62.40;;;;;;5141982;27;20031;-77
2022/02/07 11:04:26;;;;;;;8.10;2.42;;;13.40;61.80;;;;;;5160734;27;20121;-76
2022/02/07 11:06:57;;;;;;;14.52;2.40;;;13.10;62.40;;;;;;5160574;27;20102;-76
2022/02/07 11:22:22;;;;;;;6.38;1.67;;;13.40;62.20;;;;;;5160306;27;20030;-77
2022/02/07 11:25:16;;;;;;;6.53;2.30;;;13.50;62.20;;;;;;5160433;27;20106;-76
2022/02/07 11:27:52;;;;;;;15.48;2.42;;;13.60;62.70;;;;;;5141496;27;20037;-77
2022/02/07 11:30:40;;;;;;;11.40;2.20;;;13.60;62.40;;;;;;5159926;27;20074;-77
2022/02/07 11:33:07;;;;;;;7.82;1.65;;;13.70;62.50;;;;;;5159695;27;20485;-77
2022/02/07 11:35:49;;;;;;;7.03;2.05;;;13.80;61.80;;;;;;5159892;27;20025;-77
2022/02/07 11:38:18;;;;;;;9.65;1.65;;;13.80;61.10;;;;;;5159973;27;20018;-77
2022/02/07 11:40:56;;;;;;;7.00;2.03;;;13.80;62.40;;;;;;5141437;27;20022;-77
2022/02/07 11:43:24;;;;;;;5.78;1.63;;;13.90;61.90;;;;;;5159939;27;20022;-76
2022/02/07 11:46:05;;;;;;;7.53;1.58;;;13.90;61.40;;;;;;5159634;27;20102;-77
2022/02/07 11:48:47;;;;;;;8.82;1.88;;;13.90;61.50;;;;;;5159716;27;20019;-77
2022/02/07 11:51:37;;;;;;;7.78;3.15;;;13.90;60.60;;;;;;5159814;27;20023;-77
2022/02/07 11:54:06;;;;;;;;;;;13.90;61.20;;;;;;5159963;27;20043;-77
2022/02/07 11:56:43;;;;;;;8.23;2.00;;;13.90;61.20;;;;;;5159658;27;19942;-77
2022/02/07 12:00:02;;;;;;;7.38;1.92;;;14.00;61.60;;;;;;5159510;27;20339;-77
2022/02/07 12:02:21;;;;;;;13.27;4.95;;;14.10;60.40;;;;;;5155253;27;20038;-77
2022/02/07 12:04:49;;;;;;;14.88;4.35;;;14.20;59.70;;;;;;5159406;27;20109;-77
2022/02/07 12:07:15;;;;;;;11.45;3.60;;;14.10;58.50;;;;;;5159225;27;20038;-77
2022/02/07 12:10:00;;;;;;;10.82;2.55;;;14.20;59.30;;;;;;5140551;27;20027;-77
2022/02/07 12:12:41;;;;;;;13.18;3.10;;;14.00;59.20;;;;;;5140715;27;20022;-77
2022/02/07 12:15:22;;;;;;;12.98;2.50;;;14.10;59.40;;;;;;5140831;27;20508;-77
2022/02/07 12:17:48;;;;;;;5.88;1.80;;;14.30;59.30;;;;;;5140681;27;20026;-77
2022/02/07 12:20:19;;;;;;;7.38;2.00;;;14.30;58.50;;;;;;5159262;27;20052;-77
2022/02/07 12:22:54;;;;;;;9.23;1.73;;;14.30;59.70;;;;;;5140316;27;20034;-77
2022/02/07 12:25:23;;;;;;;9.02;1.92;;;14.30;59.80;;;;;;5158920;27;20099;-77
2022/02/07 12:27:50;;;;;;;11.48;1.50;;;14.20;58.40;;;;;;5159053;27;20033;-77
2022/02/07 12:30:28;;;;;;;11.43;1.75;;;14.00;58.30;;;;;;5158455;27;20018;-77
2022/02/07 12:32:54;;;;;;;6.68;1.67;;;14.10;59.60;;;;;;5159310;27;20376;-77
2022/02/07 12:35:24;;;;;;;10.55;2.22;;;14.00;58.60;;;;;;5140520;27;20019;-77
2022/02/07 12:37:49;;;;;;;5.97;1.55;;;14.00;59.30;;;;;;5159007;27;20023;-77
2022/02/07 12:40:15;;;;;;;10.23;1.85;;;14.00;59.30;;;;;;5158800;27;20091;-77
2022/02/07 12:42:43;;;;;;;6.40;1.17;;;14.00;59.10;;;;;;5140270;27;20489;-77
2022/02/07 12:45:09;;;;;;;8.25;1.70;;;14.00;57.40;;;;;;5158671;27;20464;-77
2022/02/07 12:47:37;;;;;;;9.32;1.75;;;14.10;58.40;;;;;;5158993;27;20098;-77
2022/02/07 12:50:17;;;;;;;6.90;2.30;;;14.10;58.60;;;;;;5158681;27;20107;-77
2022/02/07 12:52:43;;;;;;;12.35;2.40;;;14.10;57.90;;;;;;5140358;27;20468;-77
2022/02/07 12:55:14;;;;;;;10.38;2.17;;;14.20;58.60;;;;;;5158735;27;20028;-77
2022/02/07 12:57:44;;;;;;;9.20;2.58;;;14.20;58.40;;;;;;5158971;27;20058;-77
2022/02/07 13:00:20;;;;;;;6.70;1.52;;;14.10;57.70;;;;;;5140186;27;20118;-77
2022/02/07 13:02:49;;;;;;;10.50;2.00;;;14.30;58.90;;;;;;5158805;27;20033;-77
2022/02/07 13:05:20;;;;;;;5.25;1.90;;;14.20;57.40;;;;;;5158613;27;20392;-76
2022/02/07 13:07:49;;;;;;;7.32;1.60;;;14.30;58.10;;;;;;5158794;27;20031;-77
2022/02/07 13:10:21;;;;;;;5.63;2.08;;;14.20;57.90;;;;;;5139914;27;20476;-77
2022/02/07 13:13:29;;;;;;;4.90;1.75;;;14.10;57.70;;;;;;5158443;27;20025;-77
2022/02/07 13:15:40;;;;;;;7.38;1.70;;;14.20;58.00;;;;;;5153235;27;20027;-77
2022/02/07 13:18:10;;;;;;;7.22;1.40;;;14.30;58.30;;;;;;5140060;27;20541;-77
2022/02/07 13:20:37;;;;;;;5.38;1.20;;;14.30;57.50;;;;;;5158412;27;20019;-77
2022/02/07 13:23:10;;;;;;;6.90;1.42;;;14.40;57.80;;;;;;5158424;27;20027;-77
2022/02/07 13:25:48;;;;;;;8.00;1.50;;;14.50;57.80;;;;;;5158314;27;20035;-77
2022/02/07 13:28:23;;;;;;;8.07;1.50;;;14.60;57.70;;;;;;5139725;27;20091;-77
2022/02/07 13:30:52;;;;;;;11.60;1.85;;;14.60;56.50;;;;;;5158450;27;20022;-77
2022/02/07 13:33:18;;;;;;;9.45;1.92;;;14.70;58.80;;;;;;5158289;27;20019;-77
2022/02/07 13:35:48;;;;;;;7.43;1.98;;;14.80;57.30;;;;;;5157458;27;20023;-74
2022/02/07 13:38:18;;;;;;;6.32;1.30;;;14.50;57.10;;;;;;5158260;27;20031;-77
2022/02/07 13:40:46;;;;;;;5.65;1.35;;;14.80;58.10;;;;;;5160842;27;20019;-77
2022/02/07 13:43:25;;;;;;;4.20;1.25;;;14.80;58.60;;;;;;5162425;27;20031;-77
2022/02/07 13:46:03;;;;;;;7.63;2.33;;;14.90;58.70;;;;;;5162003;27;20027;-77
2022/02/07 13:48:30;;;;;;;7.03;1.52;;;15.00;58.30;;;;;;5162181;27;20417;-77
2022/02/07 13:50:58;;;;;;;6.68;1.70;;;14.90;58.30;;;;;;5161960;27;20034;-77
2022/02/07 13:53:25;;;;;;;6.13;1.83;;;14.90;57.70;;;;;;5161977;27;20019;-77
2022/02/07 13:55:53;;;;;;;10.10;1.90;;;15.00;57.20;;;;;;5162035;27;20019;-77
2022/02/07 13:58:32;;;;;;;9.48;2.10;;;15.00;57.80;;;;;;5162107;27;20437;-77
2022/02/07 14:01:00;;;;;;;12.13;2.53;;;14.90;58.00;;;;;;5143470;27;20044;-77
2022/02/07 14:03:30;;;;;;;8.80;1.58;;;15.00;58.20;;;;;;5143618;27;20025;-77
2022/02/07 14:06:00;;;;;;;10.88;2.05;;;14.90;57.60;;;;;;5162052;27;20023;-77
2022/02/07 14:08:46;;;;;;;8.85;1.92;;;14.90;57.70;;;;;;5143067;27;20056;-74
2022/02/07 14:11:13;;;;;;;10.80;2.20;;;14.80;58.00;;;;;;5142771;27;20426;-77
2022/02/07 14:13:41;;;;;;;12.35;4.45;;;14.70;57.70;;;;;;5161996;27;20484;-76
2022/02/07 14:16:08;;;;;;;13.55;2.50;;;14.60;58.30;;;;;;5142936;27;20444;-77
2022/02/07 14:18:37;;;;;;;7.32;1.88;;;14.70;59.00;;;;;;5142822;27;20027;-76
2022/02/07 14:21:09;;;;;;;8.85;1.33;;;14.60;60.00;;;;;;5142676;27;20030;-77
2022/02/07 14:23:40;;;;;;;12.32;1.50;;;14.70;58.80;;;;;;5161555;27;20393;-77
2022/02/07 14:26:08;;;;;;;10.13;1.60;;;14.60;58.60;;;;;;5142685;27;20042;-77
2022/02/07 14:28:34;;;;;;;10.45;1.50;;;14.50;59.70;;;;;;5142886;27;20079;-77
2022/02/07 14:31:00;;;;;;;11.68;3.35;;;14.60;59.80;;;;;;5161220;27;20023;-77
2022/02/07 14:33:26;;;;;;;9.20;1.83;;;14.60;59.80;;;;;;5142587;27;20052;-77
2022/02/07 14:35:52;;;;;;;5.72;1.80;;;14.70;60.00;;;;;;5142442;27;20019;-77
2022/02/07 14:38:18;;;;;;;8.82;2.05;;;14.60;60.30;;;;;;5160998;27;20050;-77
2022/02/07 14:40:45;;;;;;;10.90;2.97;;;14.50;60.70;;;;;;5142412;27;20387;-77
2022/02/07 14:43:21;;;;;;;10.43;2.22;;;14.50;60.70;;;;;;5142619;27;20034;-77
2022/02/07 14:46:06;;;;;;;7.15;2.20;;;14.40;61.00;;;;;;5160835;27;20019;-77
2022/02/07 14:48:38;;;;;;;7.97;2.10;;;14.50;61.60;;;;;;5142478;27;20603;-77
2022/02/07 14:51:06;;;;;;;7.93;2.35;;;14.50;61.10;;;;;;5141889;27;20022;-74
2022/02/07 14:53:36;;;;;;;13.73;2.85;;;14.50;61.10;;;;;;5160607;27;20022;-77
2022/02/07 14:56:02;;;;;;;8.07;2.22;;;14.50;61.30;;;;;;5160916;27;20040;-77
2022/02/07 14:58:28;;;;;;;11.75;2.63;;;14.40;61.40;;;;;;5160506;27;20031;-77
2022/02/07 15:00:54;;;;;;;8.77;2.35;;;14.30;61.80;;;;;;5160777;27;20034;-77
2022/02/07 15:03:21;;;;;;;11.48;3.00;;;14.30;61.10;;;;;;5160759;27;20040;-77
2022/02/07 15:05:50;;;;;;;9.38;2.05;;;14.20;61.60;;;;;;5160540;27;20031;-77
2022/02/07 15:08:16;;;;;;;9.45;1.80;;;14.30;62.10;;;;;;5160429;27;20022;-77
2022/02/07 15:10:42;;;;;;;7.95;2.13;;;14.30;62.00;;;;;;5160539;27;20026;-77
2022/02/07 15:13:09;;;;;;;7.75;2.10;;;14.30;62.80;;;;;;5160545;27;20051;-77
2022/02/07 15:15:37;;;;;;;9.10;1.80;;;14.20;62.80;;;;;;5160632;27;20369;-77
2022/02/07 15:18:07;;;;;;;5.93;1.65;;;14.30;62.20;;;;;;5160172;27;20106;-77
2022/02/07 15:20:34;;;;;;;6.87;2.07;;;14.20;62.40;;;;;;5160190;27;20052;-77
2022/02/07 15:23:00;;;;;;;9.10;2.35;;;14.20;62.10;;;;;;5141697;27;20027;-77
2022/02/07 15:25:30;;;;;;;5.85;1.67;;;14.10;62.90;;;;;;5160218;27;20049;-76
2022/02/07 15:27:58;;;;;;;6.97;2.05;;;14.00;63.40;;;;;;5141375;27;20031;-77
2022/02/07 15:30:25;;;;;;;10.65;2.58;;;13.80;63.70;;;;;;5160144;27;20067;-77
2022/02/07 15:32:53;;;;;;;6.10;2.05;;;13.70;63.80;;;;;;5159798;27;20059;-77